createdAt,value
2023-12-09T00:00:29.775Z,1.51
2023-12-09T00:01:29.635Z,1.51
2023-12-09T00:02:29.800Z,1.49
2023-12-09T00:03:29.576Z,1.47
2023-12-09T00:04:29.443Z,1.50
2023-12-09T00:05:29.320Z,1.51
2023-12-09T00:06:29.283Z,1.51
2023-12-09T00:07:29.216Z,1.47
2023-12-09T00:08:29.134Z,1.51
2023-12-09T00:09:29.332Z,1.50
2023-12-09T00:10:29.001Z,1.49
2023-12-09T00:11:28.925Z,1.47
2023-12-09T00:12:29.068Z,1.50
2023-12-09T00:13:28.787Z,1.51
2023-12-09T00:14:28.709Z,1.51
2023-12-09T00:15:28.684Z,1.51
2023-12-09T00:16:28.535Z,1.50
2023-12-09T00:17:28.557Z,1.51
2023-12-09T00:18:28.484Z,1.50
2023-12-09T00:19:28.471Z,1.51
2023-12-09T00:20:28.267Z,1.51
2023-12-09T00:21:28.434Z,1.51
2023-12-09T00:22:28.416Z,1.51
2023-12-09T00:23:28.081Z,1.54
2023-12-09T00:24:28.033Z,1.54
2023-12-09T00:25:27.951Z,1.54
2023-12-09T00:26:27.897Z,1.53
2023-12-09T00:27:27.817Z,1.56
2023-12-09T00:28:27.715Z,1.58
2023-12-09T00:29:27.627Z,1.56
2023-12-09T00:30:27.622Z,1.54
2023-12-09T00:31:27.484Z,1.53
2023-12-09T00:32:27.768Z,1.57
2023-12-09T00:33:27.456Z,1.56
2023-12-09T00:34:27.322Z,1.57
2023-12-09T00:35:27.166Z,1.57
2023-12-09T00:36:27.142Z,1.56
2023-12-09T00:37:27.023Z,1.58
2023-12-09T00:38:26.971Z,1.58
2023-12-09T00:39:26.956Z,1.60
2023-12-09T00:40:26.814Z,1.56
2023-12-09T00:41:26.724Z,1.60
2023-12-09T00:42:26.917Z,1.58
2023-12-09T00:43:26.606Z,1.56
2023-12-09T00:44:26.486Z,1.57
2023-12-09T00:45:26.555Z,1.57
2023-12-09T00:46:26.385Z,1.60
2023-12-09T00:47:26.292Z,1.58
2023-12-09T00:48:26.352Z,1.56
2023-12-09T00:49:26.238Z,1.60
2023-12-09T00:50:26.037Z,1.57
2023-12-09T00:51:25.987Z,1.57
2023-12-09T00:52:26.102Z,1.56
2023-12-09T00:53:25.817Z,1.60
2023-12-09T00:54:25.790Z,1.58
2023-12-09T00:55:25.668Z,1.61
2023-12-09T00:56:33.839Z,1.61
2023-12-09T00:57:25.821Z,1.61
2023-12-09T00:58:25.443Z,1.63
2023-12-09T00:59:25.356Z,1.67
2023-12-09T01:00:25.308Z,1.65
2023-12-09T01:01:25.232Z,1.60
2023-12-09T01:02:25.442Z,1.63
2023-12-09T01:03:25.129Z,1.63
2023-12-09T01:04:25.640Z,1.67
2023-12-09T01:05:24.927Z,1.61
2023-12-09T01:06:24.864Z,1.63
2023-12-09T01:07:24.763Z,1.63
2023-12-09T01:08:24.683Z,1.65
2023-12-09T01:09:24.706Z,1.63
2023-12-09T01:10:24.491Z,1.65
2023-12-09T01:11:24.445Z,1.61
2023-12-09T01:12:24.544Z,1.61
2023-12-09T01:13:24.313Z,1.63
2023-12-09T01:14:24.214Z,1.63
2023-12-09T01:15:24.150Z,1.61
2023-12-09T01:16:24.054Z,1.60
2023-12-09T01:17:23.961Z,1.61
2023-12-09T01:18:24.010Z,1.58
2023-12-09T01:19:23.930Z,1.61
2023-12-09T01:20:23.708Z,1.61
2023-12-09T01:21:23.677Z,1.65
2023-12-09T01:22:23.609Z,1.63
2023-12-09T01:23:23.492Z,1.68
2023-12-09T01:24:23.445Z,1.69
2023-12-09T01:25:23.361Z,1.68
2023-12-09T01:26:23.245Z,1.67
2023-12-09T01:27:23.216Z,1.67
2023-12-09T01:28:23.127Z,1.65
2023-12-09T01:29:23.091Z,1.67
2023-12-09T01:30:22.983Z,1.65
2023-12-09T01:31:22.886Z,1.68
2023-12-09T01:32:22.835Z,1.68
2023-12-09T01:33:22.869Z,1.67
2023-12-09T01:34:22.764Z,1.69
2023-12-09T01:35:22.592Z,1.68
2023-12-09T01:36:22.525Z,1.68
2023-12-09T01:37:22.439Z,1.67
2023-12-09T01:38:22.370Z,1.71
2023-12-09T01:39:22.347Z,1.69
2023-12-09T01:40:22.201Z,1.68
2023-12-09T01:41:22.157Z,1.71
2023-12-09T01:42:22.080Z,1.69
2023-12-09T01:43:21.975Z,1.72
2023-12-09T01:44:21.888Z,1.67
2023-12-09T01:45:21.890Z,1.67
2023-12-09T01:46:21.771Z,1.68
2023-12-09T01:47:21.646Z,1.68
2023-12-09T01:48:21.745Z,1.68
2023-12-09T01:49:21.692Z,1.69
2023-12-09T01:50:21.515Z,1.71
2023-12-09T01:51:21.426Z,1.68
2023-12-09T01:52:21.283Z,1.68
2023-12-09T01:53:21.206Z,1.69
2023-12-09T01:54:21.180Z,1.69
2023-12-09T01:55:21.123Z,1.67
2023-12-09T01:56:20.998Z,1.68
2023-12-09T01:57:20.910Z,1.69
2023-12-09T01:58:20.816Z,1.71
2023-12-09T01:59:22.098Z,1.69
2023-12-09T02:00:22.292Z,1.69
2023-12-09T02:01:20.606Z,1.72
2023-12-09T02:02:20.596Z,1.68
2023-12-09T02:03:20.458Z,1.71
2023-12-09T02:04:20.525Z,1.68
2023-12-09T02:05:20.415Z,1.67
2023-12-09T02:06:20.221Z,1.72
2023-12-09T02:07:20.101Z,1.69
2023-12-09T02:08:20.002Z,1.68
2023-12-09T02:09:20.029Z,1.69
2023-12-09T02:10:19.887Z,1.72
2023-12-09T02:11:19.785Z,1.71
2023-12-09T02:12:19.732Z,1.72
2023-12-09T02:13:19.628Z,1.71
2023-12-09T02:14:19.560Z,1.74
2023-12-09T02:15:19.631Z,1.72
2023-12-09T02:16:19.401Z,1.74
2023-12-09T02:17:19.324Z,1.69
2023-12-09T02:18:19.296Z,1.74
2023-12-09T02:19:19.182Z,1.74
2023-12-09T02:20:19.074Z,1.74
2023-12-09T02:21:19.017Z,1.72
2023-12-09T02:22:18.912Z,1.71
2023-12-09T02:23:18.868Z,1.74
2023-12-09T02:24:18.832Z,1.75
2023-12-09T02:25:18.706Z,1.74
2023-12-09T02:26:18.589Z,1.78
2023-12-09T02:27:18.607Z,1.78
2023-12-09T02:28:18.609Z,1.78
2023-12-09T02:29:18.575Z,1.79
2023-12-09T02:30:18.314Z,1.81
2023-12-09T02:31:18.215Z,1.79
2023-12-09T02:32:18.137Z,1.79
2023-12-09T02:33:18.194Z,1.81
2023-12-09T02:34:18.123Z,1.78
2023-12-09T02:35:17.926Z,1.78
2023-12-09T02:36:17.900Z,1.79
2023-12-09T02:37:17.789Z,1.79
2023-12-09T02:38:17.696Z,1.78
2023-12-09T02:39:18.273Z,1.79
2023-12-09T02:40:17.572Z,1.79
2023-12-09T02:41:17.429Z,1.75
2023-12-09T02:42:17.387Z,1.76
2023-12-09T02:43:17.274Z,1.76
2023-12-09T02:44:17.242Z,1.76
2023-12-09T02:45:17.170Z,1.75
2023-12-09T02:46:17.069Z,1.75
2023-12-09T02:47:16.973Z,1.75
2023-12-09T02:48:16.992Z,1.75
2023-12-09T02:49:16.929Z,1.76
2023-12-09T02:50:16.737Z,1.75
2023-12-09T02:51:16.697Z,1.79
2023-12-09T02:52:16.597Z,1.76
2023-12-09T02:53:16.483Z,1.79
2023-12-09T02:54:16.485Z,1.81
2023-12-09T02:55:16.362Z,1.82
2023-12-09T02:56:16.246Z,1.85
2023-12-09T02:57:16.221Z,1.85
2023-12-09T02:58:16.091Z,1.82
2023-12-09T02:59:16.059Z,1.86
2023-12-09T03:00:15.969Z,1.87
2023-12-09T03:01:15.945Z,1.86
2023-12-09T03:02:15.774Z,1.89
2023-12-09T03:03:15.866Z,1.89
2023-12-09T03:04:15.739Z,1.90
2023-12-09T03:05:15.640Z,1.90
2023-12-09T03:06:15.528Z,1.90
2023-12-09T03:07:15.469Z,1.90
2023-12-09T03:08:15.403Z,1.87
2023-12-09T03:09:15.361Z,1.87
2023-12-09T03:10:15.337Z,1.93
2023-12-09T03:11:15.147Z,1.89
2023-12-09T03:12:15.029Z,1.89
2023-12-09T03:13:14.963Z,1.87
2023-12-09T03:14:14.865Z,1.92
2023-12-09T03:15:14.849Z,1.89
2023-12-09T03:16:14.669Z,1.89
2023-12-09T03:17:14.607Z,1.90
2023-12-09T03:18:14.579Z,1.86
2023-12-09T03:19:14.510Z,1.86
2023-12-09T03:20:14.402Z,1.85
2023-12-09T03:21:14.291Z,1.85
2023-12-09T03:22:14.157Z,1.81
2023-12-09T03:23:14.084Z,1.82
2023-12-09T03:24:14.087Z,1.82
2023-12-09T03:25:13.990Z,1.81
2023-12-09T03:26:13.905Z,1.79
2023-12-09T03:27:13.816Z,1.82
2023-12-09T03:28:13.698Z,1.81
2023-12-09T03:29:13.687Z,1.79
2023-12-09T03:30:13.590Z,1.79
2023-12-09T03:31:13.470Z,1.81
2023-12-09T03:32:13.380Z,1.81
2023-12-09T03:33:13.413Z,1.79
2023-12-09T03:34:13.286Z,1.78
2023-12-09T03:35:13.178Z,1.79
2023-12-09T03:36:13.325Z,1.76
2023-12-09T03:37:12.977Z,1.78
2023-12-09T03:38:12.918Z,1.78
2023-12-09T03:39:12.895Z,1.79
2023-12-09T03:40:12.728Z,1.79
2023-12-09T03:41:12.640Z,1.79
2023-12-09T03:42:12.605Z,1.82
2023-12-09T03:43:12.585Z,1.81
2023-12-09T03:44:12.407Z,1.85
2023-12-09T03:45:12.542Z,1.82
2023-12-09T03:46:12.246Z,1.79
2023-12-09T03:47:18.797Z,1.82
2023-12-09T03:48:12.222Z,1.86
2023-12-09T03:49:12.151Z,1.87
2023-12-09T03:50:11.864Z,1.89
2023-12-09T03:51:11.874Z,1.87
2023-12-09T03:52:11.731Z,1.87
2023-12-09T03:53:11.612Z,1.90
2023-12-09T03:54:11.581Z,1.89
2023-12-09T03:55:11.452Z,1.90
2023-12-09T03:56:11.380Z,1.87
2023-12-09T03:57:11.327Z,1.90
2023-12-09T03:58:11.158Z,1.90
2023-12-09T03:59:11.127Z,1.89
2023-12-09T04:00:11.045Z,1.89
2023-12-09T04:01:10.938Z,1.87
2023-12-09T04:02:10.848Z,1.87
2023-12-09T04:03:10.858Z,1.87
2023-12-09T04:04:10.856Z,1.86
2023-12-09T04:05:10.610Z,1.87
2023-12-09T04:06:10.570Z,1.89
2023-12-09T04:07:17.230Z,1.87
2023-12-09T04:08:10.328Z,1.87
2023-12-09T04:09:10.275Z,1.85
2023-12-09T04:10:10.168Z,1.82
2023-12-09T04:11:10.119Z,1.85
2023-12-09T04:12:10.057Z,1.86
2023-12-09T04:13:09.915Z,1.86
2023-12-09T04:14:09.895Z,1.85
2023-12-09T04:15:09.798Z,1.85
2023-12-09T04:16:09.650Z,1.86
2023-12-09T04:17:09.576Z,1.82
2023-12-09T04:18:09.588Z,1.82
2023-12-09T04:19:10.681Z,1.86
2023-12-09T04:20:09.445Z,1.86
2023-12-09T04:21:09.292Z,1.86
2023-12-09T04:22:09.177Z,1.85
2023-12-09T04:23:09.090Z,1.87
2023-12-09T04:24:09.056Z,1.82
2023-12-09T04:25:08.913Z,1.87
2023-12-09T04:26:08.842Z,1.87
2023-12-09T04:27:08.759Z,1.86
2023-12-09T04:28:08.633Z,1.86
2023-12-09T04:29:08.582Z,1.86
2023-12-09T04:30:08.513Z,1.86
2023-12-09T04:31:08.443Z,1.87
2023-12-09T04:32:08.301Z,1.86
2023-12-09T04:33:08.330Z,1.87
2023-12-09T04:34:08.284Z,1.89
2023-12-09T04:35:08.068Z,1.89
2023-12-09T04:36:08.011Z,1.89
2023-12-09T04:37:07.917Z,1.87
2023-12-09T04:38:07.815Z,1.87
2023-12-09T04:39:07.771Z,1.86
2023-12-09T04:40:07.641Z,1.89
2023-12-09T04:41:07.631Z,1.89
2023-12-09T04:42:07.457Z,1.89
2023-12-09T04:43:07.412Z,1.90
2023-12-09T04:44:07.339Z,1.89
2023-12-09T04:45:07.274Z,1.93
2023-12-09T04:46:07.144Z,1.90
2023-12-09T04:47:08.039Z,1.92
2023-12-09T04:48:07.080Z,1.92
2023-12-09T04:49:07.046Z,1.92
2023-12-09T04:50:06.787Z,1.92
2023-12-09T04:51:06.722Z,1.92
2023-12-09T04:52:06.632Z,1.94
2023-12-09T04:53:06.538Z,1.94
2023-12-09T04:54:06.522Z,1.92
2023-12-09T04:55:06.369Z,1.93
2023-12-09T04:56:06.269Z,1.92
2023-12-09T04:57:06.272Z,1.93
2023-12-09T04:58:06.095Z,1.93
2023-12-09T04:59:06.061Z,1.93
2023-12-09T05:00:06.047Z,1.94
2023-12-09T05:01:05.920Z,1.94
2023-12-09T05:02:05.763Z,1.92
2023-12-09T05:03:05.750Z,1.93
2023-12-09T05:04:05.827Z,1.93
2023-12-09T05:05:05.533Z,1.94
2023-12-09T05:06:05.676Z,1.92
2023-12-09T05:07:05.365Z,1.93
2023-12-09T05:08:05.269Z,1.94
2023-12-09T05:09:05.284Z,1.94
2023-12-09T05:10:05.106Z,1.94
2023-12-09T05:11:05.036Z,1.98
2023-12-09T05:12:04.948Z,1.97
2023-12-09T05:13:04.868Z,1.97
2023-12-09T05:14:04.788Z,1.94
2023-12-09T05:15:04.749Z,1.97
2023-12-09T05:16:04.622Z,1.94
2023-12-09T05:17:04.645Z,1.97
2023-12-09T05:18:04.550Z,2.01
2023-12-09T05:19:04.503Z,1.98
2023-12-09T05:20:04.311Z,2.00
2023-12-09T05:21:04.271Z,1.98
2023-12-09T05:22:04.110Z,2.00
2023-12-09T05:23:05.949Z,1.98
2023-12-09T05:24:04.151Z,1.98
2023-12-09T05:25:03.902Z,1.98
2023-12-09T05:26:03.778Z,2.00
2023-12-09T05:27:03.792Z,1.98
2023-12-09T05:28:03.625Z,2.01
2023-12-09T05:29:03.585Z,2.06
2023-12-09T05:30:03.474Z,2.05
2023-12-09T05:31:03.392Z,2.05
2023-12-09T05:32:03.294Z,2.04
2023-12-09T05:33:03.392Z,2.04
2023-12-09T05:34:03.264Z,2.06
2023-12-09T05:35:03.041Z,2.06
2023-12-09T05:36:03.008Z,2.08
2023-12-09T05:37:02.876Z,2.11
2023-12-09T05:38:02.799Z,2.12
2023-12-09T05:39:02.815Z,2.12
2023-12-09T05:40:02.723Z,2.11
2023-12-09T05:41:02.547Z,2.12
2023-12-09T05:42:02.529Z,2.13
2023-12-09T05:43:02.418Z,2.12
2023-12-09T05:44:02.312Z,2.12
2023-12-09T05:45:02.281Z,2.12
2023-12-09T05:46:05.313Z,2.12
2023-12-09T05:47:02.136Z,2.13
2023-12-09T05:48:02.106Z,2.12
2023-12-09T05:49:01.998Z,2.15
2023-12-09T05:50:01.855Z,2.15
2023-12-09T05:51:01.808Z,2.16
2023-12-09T05:52:01.716Z,2.13
2023-12-09T05:53:02.571Z,2.15
2023-12-09T05:54:01.564Z,2.15
2023-12-09T05:55:01.448Z,2.16
2023-12-09T05:56:01.377Z,2.15
2023-12-09T05:57:01.331Z,2.16
2023-12-09T05:58:01.232Z,2.18
2023-12-09T05:59:01.191Z,2.21
2023-12-09T06:00:01.123Z,2.21
2023-12-09T06:01:01.055Z,2.18
2023-12-09T06:02:00.916Z,2.21
2023-12-09T06:03:00.916Z,2.23
2023-12-09T06:04:00.765Z,2.24
2023-12-09T06:05:00.665Z,2.19
2023-12-09T06:06:00.636Z,2.24
2023-12-09T06:07:00.553Z,2.23
2023-12-09T06:08:00.392Z,2.24
2023-12-09T06:09:00.384Z,2.24
2023-12-09T06:10:00.319Z,2.29
2023-12-09T06:11:00.222Z,2.27
2023-12-09T06:12:00.076Z,2.27
2023-12-09T06:12:59.963Z,2.26
2023-12-09T06:13:59.882Z,2.27
2023-12-09T06:14:59.843Z,2.26
2023-12-09T06:15:59.682Z,2.26
2023-12-09T06:16:59.645Z,2.23
2023-12-09T06:17:59.684Z,2.21
2023-12-09T06:18:59.521Z,2.23
2023-12-09T06:19:59.447Z,2.23
2023-12-09T06:20:59.334Z,2.21
2023-12-09T06:21:59.210Z,2.21
2023-12-09T06:22:59.113Z,2.21
2023-12-09T06:23:59.044Z,2.24
2023-12-09T06:24:58.977Z,2.23
2023-12-09T06:25:58.849Z,2.24
2023-12-09T06:26:58.813Z,2.24
2023-12-09T06:27:58.709Z,2.24
2023-12-09T06:28:58.627Z,2.26
2023-12-09T06:29:58.599Z,2.24
2023-12-09T06:30:58.468Z,2.24
2023-12-09T06:31:58.341Z,2.24
2023-12-09T06:32:58.365Z,2.24
2023-12-09T06:33:58.308Z,2.24
2023-12-09T06:34:58.159Z,2.23
2023-12-09T06:35:58.035Z,2.26
2023-12-09T06:36:57.939Z,2.26
2023-12-09T06:37:57.849Z,2.26
2023-12-09T06:38:57.802Z,2.26
2023-12-09T06:39:57.655Z,2.27
2023-12-09T06:40:57.607Z,2.24
2023-12-09T06:41:57.516Z,2.24
2023-12-09T06:42:57.516Z,2.24
2023-12-09T06:43:57.334Z,2.26
2023-12-09T06:44:57.457Z,2.23
2023-12-09T06:45:57.184Z,2.27
2023-12-09T06:46:57.081Z,2.26
2023-12-09T06:47:57.194Z,2.27
2023-12-09T06:48:57.118Z,2.27
2023-12-09T06:49:56.942Z,2.26
2023-12-09T06:50:56.824Z,2.27
2023-12-09T06:51:56.690Z,2.29
2023-12-09T06:52:56.650Z,2.31
2023-12-09T06:53:56.599Z,2.33
2023-12-09T06:54:56.475Z,2.31
2023-12-09T06:55:56.347Z,2.34
2023-12-09T06:56:56.344Z,2.31
2023-12-09T06:57:56.189Z,2.34
2023-12-09T06:58:56.145Z,2.34
2023-12-09T06:59:56.102Z,2.31
2023-12-09T07:00:56.010Z,2.33
2023-12-09T07:01:55.919Z,2.34
2023-12-09T07:02:59.524Z,2.33
2023-12-09T07:03:55.773Z,2.31
2023-12-09T07:04:55.692Z,2.36
2023-12-09T07:05:55.574Z,2.37
2023-12-09T07:06:55.486Z,2.34
2023-12-09T07:07:55.458Z,2.37
2023-12-09T07:08:55.503Z,2.37
2023-12-09T07:09:55.258Z,2.41
2023-12-09T07:10:55.110Z,2.37
2023-12-09T07:12:01.852Z,2.36
2023-12-09T07:12:54.992Z,2.41
2023-12-09T07:13:54.832Z,2.41
2023-12-09T07:14:54.829Z,2.41
2023-12-09T07:15:54.688Z,2.41
2023-12-09T07:16:54.631Z,2.41
2023-12-09T07:17:54.663Z,2.41
2023-12-09T07:18:54.635Z,2.44
2023-12-09T07:19:54.427Z,2.44
2023-12-09T07:20:54.244Z,2.42
2023-12-09T07:21:54.167Z,2.41
2023-12-09T07:22:54.072Z,2.42
2023-12-09T07:23:53.932Z,2.45
2023-12-09T07:24:53.894Z,2.44
2023-12-09T07:25:53.730Z,2.47
2023-12-09T07:26:53.647Z,2.47
2023-12-09T07:27:53.637Z,2.47
2023-12-09T07:28:53.513Z,2.48
2023-12-09T07:29:53.390Z,2.48
2023-12-09T07:30:53.265Z,2.48
2023-12-09T07:31:53.160Z,2.47
2023-12-09T07:32:53.123Z,2.49
2023-12-09T07:33:53.142Z,2.52
2023-12-09T07:34:56.832Z,2.54
2023-12-09T07:35:52.790Z,2.51
2023-12-09T07:36:52.716Z,2.51
2023-12-09T07:37:52.595Z,2.49
2023-12-09T07:38:52.538Z,2.54
2023-12-09T07:39:52.487Z,2.55
2023-12-09T07:40:52.338Z,2.52
2023-12-09T07:41:52.264Z,2.52
2023-12-09T07:42:52.144Z,2.54
2023-12-09T07:43:52.061Z,2.55
2023-12-09T07:44:52.005Z,2.55
2023-12-09T07:45:51.934Z,2.57
2023-12-09T07:46:51.767Z,2.55
2023-12-09T07:47:51.749Z,2.57
2023-12-09T07:48:51.762Z,2.54
2023-12-09T07:49:51.625Z,2.57
2023-12-09T07:50:51.396Z,2.58
2023-12-09T07:51:51.353Z,2.58
2023-12-09T07:52:51.256Z,2.62
2023-12-09T07:53:51.674Z,2.62
2023-12-09T07:54:51.124Z,2.62
2023-12-09T07:55:50.974Z,2.60
2023-12-09T07:56:50.869Z,2.62
2023-12-09T07:57:50.783Z,2.63
2023-12-09T07:58:50.734Z,2.66
2023-12-09T07:59:50.638Z,2.65
2023-12-09T08:00:50.588Z,2.65
2023-12-09T08:01:50.393Z,2.65
2023-12-09T08:02:50.337Z,2.60
2023-12-09T08:03:50.604Z,2.65
2023-12-09T08:04:50.200Z,2.65
2023-12-09T08:05:50.085Z,2.62
2023-12-09T08:06:50.044Z,2.66
2023-12-09T08:07:49.876Z,2.66
2023-12-09T08:08:49.804Z,2.67
2023-12-09T08:09:49.706Z,2.70
2023-12-09T08:10:49.637Z,2.72
2023-12-09T08:11:52.947Z,2.72
2023-12-09T08:12:49.524Z,2.72
2023-12-09T08:13:50.036Z,2.73
2023-12-09T08:14:49.302Z,2.69
2023-12-09T08:15:49.199Z,2.75
2023-12-09T08:16:49.116Z,2.72
2023-12-09T08:17:49.552Z,2.73
2023-12-09T08:18:49.048Z,2.75
2023-12-09T08:19:48.878Z,2.75
2023-12-09T08:20:48.734Z,2.80
2023-12-09T08:21:48.702Z,2.81
2023-12-09T08:22:48.653Z,2.81
2023-12-09T08:23:48.635Z,2.83
2023-12-09T08:24:48.438Z,2.83
2023-12-09T08:25:48.287Z,2.83
2023-12-09T08:26:48.217Z,2.83
2023-12-09T08:27:48.115Z,2.87
2023-12-09T08:28:48.078Z,2.84
2023-12-09T08:29:47.962Z,2.87
2023-12-09T08:30:47.851Z,2.88
2023-12-09T08:31:47.797Z,2.88
2023-12-09T08:32:47.722Z,2.90
2023-12-09T08:33:47.687Z,2.93
2023-12-09T08:34:57.105Z,2.94
2023-12-09T08:35:47.418Z,2.91
2023-12-09T08:36:47.406Z,2.93
2023-12-09T08:37:47.314Z,2.93
2023-12-09T08:38:47.295Z,2.96
2023-12-09T08:39:47.071Z,2.94
2023-12-09T08:40:46.980Z,2.98
2023-12-09T08:41:46.878Z,2.99
2023-12-09T08:42:46.916Z,3.02
2023-12-09T08:43:46.690Z,3.01
2023-12-09T08:44:46.798Z,3.02
2023-12-09T08:45:46.708Z,2.99
2023-12-09T08:46:46.437Z,2.99
2023-12-09T08:47:46.491Z,3.02
2023-12-09T08:48:46.380Z,3.01
2023-12-09T08:49:46.340Z,3.01
2023-12-09T08:50:46.074Z,3.02
2023-12-09T08:51:46.047Z,3.01
2023-12-09T08:52:45.957Z,3.05
2023-12-09T08:53:45.782Z,3.02
2023-12-09T08:54:45.805Z,3.05
2023-12-09T08:55:45.805Z,3.02
2023-12-09T08:56:45.522Z,3.02
2023-12-09T08:57:45.440Z,3.02
2023-12-09T08:58:45.317Z,3.06
2023-12-09T08:59:45.248Z,3.05
2023-12-09T09:00:45.297Z,3.06
2023-12-09T09:01:45.049Z,3.09
2023-12-09T09:02:44.924Z,3.05
2023-12-09T09:03:44.905Z,3.09
2023-12-09T09:04:44.816Z,3.09
2023-12-09T09:05:44.759Z,3.11
2023-12-09T09:06:44.564Z,3.09
2023-12-09T09:07:44.469Z,3.11
2023-12-09T09:08:44.353Z,3.13
2023-12-09T09:09:44.304Z,3.12
2023-12-09T09:10:44.174Z,3.12
2023-12-09T09:11:44.065Z,3.16
2023-12-09T09:12:44.095Z,3.13
2023-12-09T09:13:43.860Z,3.13
2023-12-09T09:14:43.781Z,3.13
2023-12-09T09:15:43.734Z,3.13
2023-12-09T09:16:43.626Z,3.17
2023-12-09T09:17:43.459Z,3.17
2023-12-09T09:18:43.473Z,3.19
2023-12-09T09:19:43.380Z,3.20
2023-12-09T09:20:43.152Z,3.21
2023-12-09T09:21:43.090Z,3.19
2023-12-09T09:22:46.413Z,3.21
2023-12-09T09:23:42.843Z,3.20
2023-12-09T09:24:42.764Z,3.20
2023-12-09T09:25:42.628Z,3.23
2023-12-09T09:26:42.567Z,3.21
2023-12-09T09:27:42.461Z,3.23
2023-12-09T09:28:42.344Z,3.24
2023-12-09T09:29:42.233Z,3.24
2023-12-09T09:30:42.170Z,3.24
2023-12-09T09:31:42.012Z,3.24
2023-12-09T09:32:41.980Z,3.27
2023-12-09T09:33:41.928Z,3.29
2023-12-09T09:34:41.796Z,3.29
2023-12-09T09:35:41.613Z,3.30
2023-12-09T09:36:41.617Z,3.30
2023-12-09T09:37:41.396Z,3.34
2023-12-09T09:38:41.336Z,3.31
2023-12-09T09:39:41.212Z,3.35
2023-12-09T09:40:41.170Z,3.35
2023-12-09T09:41:41.013Z,3.39
2023-12-09T09:42:41.104Z,3.39
2023-12-09T09:43:40.845Z,3.43
2023-12-09T09:44:40.745Z,3.43
2023-12-09T09:45:40.688Z,3.45
2023-12-09T09:46:40.557Z,3.48
2023-12-09T09:47:40.459Z,3.46
2023-12-09T09:48:40.488Z,3.49
2023-12-09T09:49:40.342Z,3.48
2023-12-09T09:50:40.141Z,3.52
2023-12-09T09:51:40.066Z,3.54
2023-12-09T09:52:39.920Z,3.52
2023-12-09T09:53:39.805Z,3.52
2023-12-09T09:54:39.718Z,3.54
2023-12-09T09:55:39.590Z,3.52
2023-12-09T09:56:39.515Z,3.56
2023-12-09T09:57:39.442Z,3.57
2023-12-09T09:58:39.285Z,3.56
2023-12-09T09:59:39.195Z,3.57
2023-12-09T10:00:39.146Z,3.56
2023-12-09T10:01:39.069Z,3.56
2023-12-09T10:02:38.848Z,3.57
2023-12-09T10:03:38.828Z,3.57
2023-12-09T10:04:38.747Z,3.58
2023-12-09T10:05:38.579Z,3.58
2023-12-09T10:06:38.501Z,3.58
2023-12-09T10:07:38.369Z,3.61
2023-12-09T10:08:38.226Z,3.63
2023-12-09T10:09:38.121Z,3.63
2023-12-09T10:10:38.030Z,3.63
2023-12-09T10:11:37.911Z,3.64
2023-12-09T10:12:37.814Z,3.66
2023-12-09T10:13:37.694Z,3.63
2023-12-09T10:14:37.590Z,3.63
2023-12-09T10:15:37.517Z,3.64
2023-12-09T10:16:37.364Z,3.61
2023-12-09T10:17:37.328Z,3.63
2023-12-09T10:18:37.267Z,3.66
2023-12-09T10:19:37.128Z,3.66
2023-12-09T10:20:36.947Z,3.67
2023-12-09T10:21:36.930Z,3.66
2023-12-09T10:22:36.737Z,3.67
2023-12-09T10:23:39.270Z,3.70
2023-12-09T10:24:36.665Z,3.70
2023-12-09T10:25:36.498Z,3.68
2023-12-09T10:26:36.461Z,3.70
2023-12-09T10:27:36.353Z,3.67
2023-12-09T10:28:36.150Z,3.70
2023-12-09T10:29:36.064Z,3.70
2023-12-09T10:30:36.155Z,3.76
2023-12-09T10:31:35.842Z,3.74
2023-12-09T10:32:35.811Z,3.75
2023-12-09T10:33:35.639Z,3.78
2023-12-09T10:34:35.532Z,3.76
2023-12-09T10:35:35.336Z,3.78
2023-12-09T10:36:35.290Z,3.79
2023-12-09T10:37:35.161Z,3.78
2023-12-09T10:38:35.050Z,3.82
2023-12-09T10:39:34.977Z,3.81
2023-12-09T10:40:34.842Z,3.84
2023-12-09T10:41:34.753Z,3.84
2023-12-09T10:42:34.616Z,3.84
2023-12-09T10:43:34.550Z,3.85
2023-12-09T10:44:34.432Z,3.84
2023-12-09T10:45:34.346Z,3.84
2023-12-09T10:46:36.880Z,3.85
2023-12-09T10:47:34.145Z,3.85
2023-12-09T10:48:34.012Z,3.85
2023-12-09T10:49:33.958Z,3.86
2023-12-09T10:50:33.761Z,3.86
2023-12-09T10:51:33.728Z,3.88
2023-12-09T10:52:35.873Z,3.86
2023-12-09T10:53:33.383Z,3.86
2023-12-09T10:54:33.400Z,3.88
2023-12-09T10:55:33.157Z,3.88
2023-12-09T10:56:33.080Z,3.92
2023-12-09T10:57:32.971Z,3.88
2023-12-09T10:58:33.676Z,3.89
2023-12-09T10:59:32.739Z,3.89
2023-12-09T11:00:32.670Z,3.92
2023-12-09T11:01:32.592Z,3.92
2023-12-09T11:02:32.400Z,3.92
2023-12-09T11:03:32.413Z,3.93
2023-12-09T11:04:32.305Z,3.92
2023-12-09T11:05:32.071Z,3.92
2023-12-09T11:06:31.998Z,3.97
2023-12-09T11:07:31.843Z,3.97
2023-12-09T11:08:31.726Z,3.96
2023-12-09T11:09:31.671Z,3.97
2023-12-09T11:10:31.492Z,3.96
2023-12-09T11:11:31.414Z,3.96
2023-12-09T11:12:31.605Z,3.99
2023-12-09T11:13:31.167Z,3.96
2023-12-09T11:14:31.055Z,4.00
2023-12-09T11:15:31.004Z,4.00
2023-12-09T11:16:30.853Z,4.00
2023-12-09T11:17:30.841Z,4.00
2023-12-09T11:18:30.708Z,4.00
2023-12-09T11:19:30.695Z,4.03
2023-12-09T11:20:30.565Z,4.03
2023-12-09T11:21:30.406Z,4.04
2023-12-09T11:22:30.363Z,4.02
2023-12-09T11:23:30.040Z,4.03
2023-12-09T11:24:29.985Z,4.03
2023-12-09T11:25:29.841Z,4.10
2023-12-09T11:26:29.760Z,4.06
2023-12-09T11:27:29.636Z,4.06
2023-12-09T11:28:29.488Z,4.07
2023-12-09T11:29:29.374Z,4.07
2023-12-09T11:30:29.366Z,4.07
2023-12-09T11:31:29.147Z,4.11
2023-12-09T11:32:29.473Z,4.11
2023-12-09T11:33:28.970Z,4.10
2023-12-09T11:34:28.885Z,4.12
2023-12-09T11:35:28.693Z,4.12
2023-12-09T11:36:29.564Z,4.15
2023-12-09T11:37:28.522Z,4.12
2023-12-09T11:38:28.362Z,4.12
2023-12-09T11:39:28.259Z,4.15
2023-12-09T11:40:28.119Z,4.14
2023-12-09T11:41:28.005Z,4.17
2023-12-09T11:42:28.168Z,4.18
2023-12-09T11:43:27.777Z,4.19
2023-12-09T11:44:27.688Z,4.22
2023-12-09T11:45:27.671Z,4.24
2023-12-09T11:46:27.439Z,4.24
2023-12-09T11:47:27.439Z,4.24
2023-12-09T11:48:27.336Z,4.30
2023-12-09T11:49:27.145Z,4.27
2023-12-09T11:50:26.984Z,4.27
2023-12-09T11:51:26.892Z,4.27
2023-12-09T11:52:27.032Z,4.29
2023-12-09T11:53:27.194Z,4.32
2023-12-09T11:54:26.547Z,4.33
2023-12-09T11:55:26.441Z,4.36
2023-12-09T11:56:26.310Z,4.33
2023-12-09T11:57:26.251Z,4.39
2023-12-09T11:58:26.053Z,4.36
2023-12-09T11:59:25.948Z,4.37
2023-12-09T12:00:25.909Z,4.40
2023-12-09T12:01:25.772Z,4.37
2023-12-09T12:02:25.877Z,4.40
2023-12-09T12:03:25.554Z,4.40
2023-12-09T12:04:25.384Z,4.42
2023-12-09T12:05:25.367Z,4.42
2023-12-09T12:06:25.123Z,4.42
2023-12-09T12:07:25.006Z,4.45
2023-12-09T12:08:24.892Z,4.43
2023-12-09T12:09:24.854Z,4.47
2023-12-09T12:10:24.651Z,4.45
2023-12-09T12:11:24.526Z,4.47
2023-12-09T12:12:24.476Z,4.50
2023-12-09T12:13:24.279Z,4.48
2023-12-09T12:14:24.163Z,4.48
2023-12-09T12:15:24.124Z,4.50
2023-12-09T12:16:23.941Z,4.50
2023-12-09T12:17:23.899Z,4.54
2023-12-09T12:18:23.812Z,4.50
2023-12-09T12:19:23.710Z,4.51
2023-12-09T12:20:23.521Z,4.54
2023-12-09T12:21:23.342Z,4.57
2023-12-09T12:22:23.224Z,4.55
2023-12-09T12:23:30.103Z,4.55
2023-12-09T12:24:23.005Z,4.57
2023-12-09T12:25:22.875Z,4.58
2023-12-09T12:26:22.891Z,4.58
2023-12-09T12:27:25.089Z,4.60
2023-12-09T12:28:22.540Z,4.57
2023-12-09T12:29:22.504Z,4.63
2023-12-09T12:30:22.389Z,4.60
2023-12-09T12:31:22.229Z,4.61
2023-12-09T12:32:22.107Z,4.61
2023-12-09T12:33:22.082Z,4.61
2023-12-09T12:34:21.974Z,4.60
2023-12-09T12:35:21.679Z,4.63
2023-12-09T12:36:21.610Z,4.64
2023-12-09T12:37:21.521Z,4.64
2023-12-09T12:38:21.354Z,4.63
2023-12-09T12:39:21.260Z,4.63
2023-12-09T12:40:21.119Z,4.63
2023-12-09T12:41:20.917Z,4.63
2023-12-09T12:42:20.914Z,4.68
2023-12-09T12:43:20.711Z,4.69
2023-12-09T12:44:20.648Z,4.66
2023-12-09T12:45:20.724Z,4.68
2023-12-09T12:46:20.346Z,4.66
2023-12-09T12:47:20.330Z,4.69
2023-12-09T12:48:20.301Z,4.71
2023-12-09T12:49:20.128Z,4.69
2023-12-09T12:50:19.929Z,4.69
2023-12-09T12:51:19.707Z,4.66
2023-12-09T12:52:19.591Z,4.66
2023-12-09T12:53:19.417Z,4.66
2023-12-09T12:54:19.312Z,4.66
2023-12-09T12:55:19.246Z,4.66
2023-12-09T12:56:19.061Z,4.64
2023-12-09T12:57:18.988Z,4.66
2023-12-09T12:58:18.845Z,4.63
2023-12-09T12:59:18.697Z,4.61
2023-12-09T13:00:18.863Z,4.63
2023-12-09T13:01:18.463Z,4.64
2023-12-09T13:02:18.350Z,4.60
2023-12-09T13:03:18.331Z,4.64
2023-12-09T13:04:18.075Z,4.63
2023-12-09T13:05:17.932Z,4.64
2023-12-09T13:06:17.891Z,4.66
2023-12-09T13:07:17.769Z,4.64
2023-12-09T13:08:17.613Z,4.66
2023-12-09T13:09:17.456Z,4.68
2023-12-09T13:10:17.333Z,4.69
2023-12-09T13:11:17.190Z,4.69
2023-12-09T13:12:17.123Z,4.68
2023-12-09T13:13:16.956Z,4.71
2023-12-09T13:14:16.845Z,4.69
2023-12-09T13:15:16.882Z,4.73
2023-12-09T13:16:16.815Z,4.71
2023-12-09T13:17:16.483Z,4.71